sensor_id;sensor_type;location;lat;lon;timestamp;pressure;altitude;pressure_sealevel;temperature;humidity
22047;BME280;11187;49.412;20.956;2023-03-23T00:01:46;94802.88;;;3.76;100.00
22047;BME280;11187;49.412;20.956;2023-03-23T00:04:21;94797.81;;;3.76;100.00
22047;BME280;11187;49.412;20.956;2023-03-23T00:07:08;94801.22;;;3.77;100.00
22047;BME280;11187;49.412;20.956;2023-03-23T00:09:40;94804.59;;;3.78;100.00
22047;BME280;11187;49.412;20.956;2023-03-23T00:12:28;94801.19;;;3.75;100.00
22047;BME280;11187;49.412;20.956;2023-03-23T00:15:07;94805.41;;;3.73;100.00
22047;BME280;11187;49.412;20.956;2023-03-23T00:18:02;94804.56;;;3.71;100.00
22047;BME280;11187;49.412;20.956;2023-03-23T00:21:06;94803.72;;;3.71;100.00
22047;BME280;11187;49.412;20.956;2023-03-23T00:27:23;94802.88;;;3.69;100.00
22047;BME280;11187;49.412;20.956;2023-03-23T00:30:16;94801.16;;;3.63;100.00
22047;BME280;11187;49.412;20.956;2023-03-23T00:32:49;94800.31;;;3.60;100.00
22047;BME280;11187;49.412;20.956;2023-03-23T00:35:35;94807.88;;;3.55;100.00
22047;BME280;11187;49.412;20.956;2023-03-23T00:38:07;94810.38;;;3.52;100.00
22047;BME280;11187;49.412;20.956;2023-03-23T00:40:53;94805.31;;;3.49;100.00
22047;BME280;11187;49.412;20.956;2023-03-23T00:43:25;94806.16;;;3.45;100.00
22047;BME280;11187;49.412;20.956;2023-03-23T00:46:11;94800.25;;;3.41;100.00
22047;BME280;11187;49.412;20.956;2023-03-23T00:48:43;94804.44;;;3.39;100.00
22047;BME280;11187;49.412;20.956;2023-03-23T00:51:29;94796.03;;;3.39;100.00
22047;BME280;11187;49.412;20.956;2023-03-23T00:54:01;94800.22;;;3.37;100.00
22047;BME280;11187;49.412;20.956;2023-03-23T00:56:47;94796.00;;;3.37;100.00
22047;BME280;11187;49.412;20.956;2023-03-23T00:59:19;94796.00;;;3.35;100.00
22047;BME280;11187;49.412;20.956;2023-03-23T01:02:05;94796.00;;;3.35;100.00
22047;BME280;11187;49.412;20.956;2023-03-23T01:04:40;94792.59;;;3.33;100.00
22047;BME280;11187;49.412;20.956;2023-03-23T01:07:31;94793.44;;;3.29;100.00
22047;BME280;11187;49.412;20.956;2023-03-23T01:10:04;94790.88;;;3.26;100.00
22047;BME280;11187;49.412;20.956;2023-03-23T01:12:51;94797.63;;;3.21;100.00
22047;BME280;11187;49.412;20.956;2023-03-23T01:15:23;94790.88;;;3.22;100.00
22047;BME280;11187;49.412;20.956;2023-03-23T01:18:09;94790.84;;;3.20;100.00
22047;BME280;11187;49.412;20.956;2023-03-23T01:20:41;94781.59;;;3.16;100.00
22047;BME280;11187;49.412;20.956;2023-03-23T01:23:34;94784.13;;;3.16;100.00
22047;BME280;11187;49.412;20.956;2023-03-23T01:26:28;94776.50;;;3.11;100.00
22047;BME280;11187;49.412;20.956;2023-03-23T01:29:00;94772.28;;;3.09;100.00
22047;BME280;11187;49.412;20.956;2023-03-23T01:31:53;94772.22;;;3.04;100.00
22047;BME280;11187;49.412;20.956;2023-03-23T01:34:25;94777.25;;;3.00;100.00
22047;BME280;11187;49.412;20.956;2023-03-23T01:37:11;94778.94;;;2.96;100.00
22047;BME280;11187;49.412;20.956;2023-03-23T01:39:43;94782.28;;;2.92;100.00
22047;BME280;11187;49.412;20.956;2023-03-23T01:42:34;94776.38;;;2.90;100.00
22047;BME280;11187;49.412;20.956;2023-03-23T01:48:18;94777.16;;;2.81;100.00
22047;BME280;11187;49.412;20.956;2023-03-23T01:50:59;94778.00;;;2.79;100.00
22047;BME280;11187;49.412;20.956;2023-03-23T01:53:56;94778.00;;;2.76;100.00
22047;BME280;11187;49.412;20.956;2023-03-23T01:56:35;94767.84;;;2.71;100.00
22047;BME280;11187;49.412;20.956;2023-03-23T01:59:25;94767.81;;;2.68;100.00
22047;BME280;11187;49.412;20.956;2023-03-23T02:01:59;94768.69;;;2.68;100.00
22047;BME280;11187;49.412;20.956;2023-03-23T02:04:57;94768.66;;;2.67;100.00
22047;BME280;11187;49.412;20.956;2023-03-23T02:07:31;94769.47;;;2.63;100.00
22047;BME280;11187;49.412;20.956;2023-03-23T02:10:17;94763.56;;;2.61;100.00
22047;BME280;11187;49.412;20.956;2023-03-23T02:12:49;94759.34;;;2.58;100.00
22047;BME280;11187;49.412;20.956;2023-03-23T02:15:41;94756.81;;;2.57;100.00
22047;BME280;11187;49.412;20.956;2023-03-23T02:33:43;94777.81;;;2.48;100.00
22047;BME280;11187;49.412;20.956;2023-03-23T02:36:58;94773.63;;;2.50;100.00
22047;BME280;11187;49.412;20.956;2023-03-23T02:40:02;94771.94;;;2.50;100.00
22047;BME280;11187;49.412;20.956;2023-03-23T02:42:58;94771.94;;;2.54;100.00
22047;BME280;11187;49.412;20.956;2023-03-23T02:45:33;94774.47;;;2.54;100.00
22047;BME280;11187;49.412;20.956;2023-03-23T02:48:29;94776.19;;;2.58;100.00
22047;BME280;11187;49.412;20.956;2023-03-23T02:51:03;94776.19;;;2.59;100.00
22047;BME280;11187;49.412;20.956;2023-03-23T02:53:51;94776.19;;;2.58;100.00
22047;BME280;11187;49.412;20.956;2023-03-23T02:56:26;94775.34;;;2.57;100.00
22047;BME280;11187;49.412;20.956;2023-03-23T02:59:14;94777.91;;;2.62;100.00
22047;BME280;11187;49.412;20.956;2023-03-23T03:02:00;94779.56;;;2.63;100.00
22047;BME280;11187;49.412;20.956;2023-03-23T03:08:07;94777.06;;;2.64;100.00
22047;BME280;11187;49.412;20.956;2023-03-23T03:10:46;94775.44;;;2.71;100.00
22047;BME280;11187;49.412;20.956;2023-03-23T03:16:38;94780.53;;;2.79;100.00
22047;BME280;11187;49.412;20.956;2023-03-23T03:19:37;94782.22;;;2.81;100.00
22047;BME280;11187;49.412;20.956;2023-03-23T03:22:33;94789.81;;;2.83;100.00
22047;BME280;11187;49.412;20.956;2023-03-23T03:25:11;94790.69;;;2.82;100.00
22047;BME280;11187;49.412;20.956;2023-03-23T03:27:58;94784.72;;;2.75;100.00
22047;BME280;11187;49.412;20.956;2023-03-23T03:30:32;94785.50;;;2.66;100.00
22047;BME280;11187;49.412;20.956;2023-03-23T03:33:24;94783.78;;;2.61;100.00
22047;BME280;11187;49.412;20.956;2023-03-23T03:36:03;94782.06;;;2.55;100.00
22047;BME280;11187;49.412;20.956;2023-03-23T03:38:58;94786.25;;;2.51;100.00
22047;BME280;11187;49.412;20.956;2023-03-23T03:41:54;94782.03;;;2.50;100.00
22047;BME280;11187;49.412;20.956;2023-03-23T03:44:26;94785.38;;;2.49;100.00
22047;BME280;11187;49.412;20.956;2023-03-23T03:47:12;94782.00;;;2.49;100.00
22047;BME280;11187;49.412;20.956;2023-03-23T03:49:44;94778.63;;;2.47;100.00
22047;BME280;11187;49.412;20.956;2023-03-23T03:52:30;94781.16;;;2.47;100.00
22047;BME280;11187;49.412;20.956;2023-03-23T03:55:02;94778.66;;;2.48;100.00
22047;BME280;11187;49.412;20.956;2023-03-23T03:57:48;94784.53;;;2.49;100.00
22047;BME280;11187;49.412;20.956;2023-03-23T04:00:20;94783.72;;;2.50;100.00
22047;BME280;11187;49.412;20.956;2023-03-23T04:03:14;94785.38;;;2.49;100.00
22047;BME280;11187;49.412;20.956;2023-03-23T04:05:48;94778.66;;;2.48;100.00
22047;BME280;11187;49.412;20.956;2023-03-23T04:08:35;94770.22;;;2.46;100.00
22047;BME280;11187;49.412;20.956;2023-03-23T04:11:11;94779.47;;;2.44;100.00
22047;BME280;11187;49.412;20.956;2023-03-23T04:13:57;94773.63;;;2.50;100.00
22047;BME280;11187;49.412;20.956;2023-03-23T04:16:37;94782.91;;;2.56;100.00
22047;BME280;11187;49.412;20.956;2023-03-23T04:19:23;94782.88;;;2.54;100.00
22047;BME280;11187;49.412;20.956;2023-03-23T04:22:18;94783.78;;;2.59;100.00
22047;BME280;11187;49.412;20.956;2023-03-23T04:25:17;94785.47;;;2.62;100.00
22047;BME280;11187;49.412;20.956;2023-03-23T04:28:10;94777.06;;;2.64;100.00
22047;BME280;11187;49.412;20.956;2023-03-23T04:31:04;94781.28;;;2.65;100.00
22047;BME280;11187;49.412;20.956;2023-03-23T04:33:36;94778.78;;;2.67;100.00
22047;BME280;11187;49.412;20.956;2023-03-23T04:36:22;94778.78;;;2.68;100.00
22047;BME280;11187;49.412;20.956;2023-03-23T04:38:55;94778.75;;;2.65;100.00
22047;BME280;11187;49.412;20.956;2023-03-23T04:41:42;94776.22;;;2.64;100.00
22047;BME280;11187;49.412;20.956;2023-03-23T04:44:15;94777.94;;;2.66;100.00
22047;BME280;11187;49.412;20.956;2023-03-23T04:47:01;94777.09;;;2.67;100.00
22047;BME280;11187;49.412;20.956;2023-03-23T04:49:34;94773.72;;;2.64;100.00
22047;BME280;11187;49.412;20.956;2023-03-23T04:52:20;94768.63;;;2.61;100.00
22047;BME280;11187;49.412;20.956;2023-03-23T04:54:52;94768.59;;;2.58;100.00
22047;BME280;11187;49.412;20.956;2023-03-23T04:57:38;94762.72;;;2.57;100.00
22047;BME280;11187;49.412;20.956;2023-03-23T05:00:11;94766.06;;;2.58;100.00
22047;BME280;11187;49.412;20.956;2023-03-23T05:02:57;94762.69;;;2.59;100.00
22047;BME280;11187;49.412;20.956;2023-03-23T05:05:29;94769.47;;;2.60;100.00
22047;BME280;11187;49.412;20.956;2023-03-23T05:08:23;94777.03;;;2.57;100.00
22047;BME280;11187;49.412;20.956;2023-03-23T05:10:57;94776.97;;;2.50;100.00
22047;BME280;11187;49.412;20.956;2023-03-23T05:13:50;94777.81;;;2.48;100.00
22047;BME280;11187;49.412;20.956;2023-03-23T05:16:43;94777.81;;;2.51;100.00
22047;BME280;11187;49.412;20.956;2023-03-23T05:19:19;94779.53;;;2.55;100.00
22047;BME280;11187;49.412;20.956;2023-03-23T05:22:06;94779.56;;;2.58;100.00
22047;BME280;11187;49.412;20.956;2023-03-23T05:24:38;94769.47;;;2.60;100.00
22047;BME280;11187;49.412;20.956;2023-03-23T05:27:31;94781.28;;;2.62;100.00
22047;BME280;11187;49.412;20.956;2023-03-23T05:30:24;94782.97;;;2.62;100.00
22047;BME280;11187;49.412;20.956;2023-03-23T05:32:57;94788.84;;;2.59;100.00
22047;BME280;11187;49.412;20.956;2023-03-23T05:35:45;94786.28;;;2.56;100.00
22047;BME280;11187;49.412;20.956;2023-03-23T05:38:18;94774.50;;;2.60;100.00
22047;BME280;11187;49.412;20.956;2023-03-23T05:41:04;94780.47;;;2.66;100.00
22047;BME280;11187;49.412;20.956;2023-03-23T05:43:36;94781.38;;;2.78;100.00
22047;BME280;11187;49.412;20.956;2023-03-23T05:46:29;94781.41;;;2.85;100.00
22047;BME280;11187;49.412;20.956;2023-03-23T05:49:01;94777.25;;;2.95;100.00
22047;BME280;11187;49.412;20.956;2023-03-23T05:51:47;94773.94;;;3.07;100.00
22047;BME280;11187;49.412;20.956;2023-03-23T05:54:21;94780.72;;;3.16;100.00
22047;BME280;11187;49.412;20.956;2023-03-23T05:57:07;94781.59;;;3.27;100.00
22047;BME280;11187;49.412;20.956;2023-03-23T05:59:40;94786.69;;;3.36;100.00
22047;BME280;11187;49.412;20.956;2023-03-23T06:02:26;94780.84;;;3.46;100.00
22047;BME280;11187;49.412;20.956;2023-03-23T06:05:01;94782.59;;;3.67;100.00
22047;BME280;11187;49.412;20.956;2023-03-23T06:07:47;94782.66;;;3.93;100.00
22047;BME280;11187;49.412;20.956;2023-03-23T06:10:19;94775.09;;;4.15;100.00
22047;BME280;11187;49.412;20.956;2023-03-23T06:13:12;94775.94;;;4.31;100.00
22047;BME280;11187;49.412;20.956;2023-03-23T06:16:05;94770.88;;;4.43;100.00
22047;BME280;11187;49.412;20.956;2023-03-23T06:18:37;94774.25;;;4.56;100.00
22047;BME280;11187;49.412;20.956;2023-03-23T06:21:23;94766.66;;;4.64;100.00
22047;BME280;11187;49.412;20.956;2023-03-23T06:24:16;94771.69;;;4.71;100.00
22047;BME280;11187;49.412;20.956;2023-03-23T06:27:09;94769.16;;;4.76;100.00
22047;BME280;11187;49.412;20.956;2023-03-23T06:29:41;94770.00;;;4.76;100.00
22047;BME280;11187;49.412;20.956;2023-03-23T06:32:34;94769.13;;;4.80;100.00
22047;BME280;11187;49.412;20.956;2023-03-23T06:35:09;94768.28;;;4.85;100.00
22047;BME280;11187;49.412;20.956;2023-03-23T06:38:02;94780.13;;;4.86;100.00
22047;BME280;11187;49.412;20.956;2023-03-23T06:40:55;94782.66;;;4.90;100.00
22047;BME280;11187;49.412;20.956;2023-03-23T06:43:28;94777.56;;;4.92;100.00
22047;BME280;11187;49.412;20.956;2023-03-23T06:46:16;94769.94;;;4.99;100.00
22047;BME280;11187;49.412;20.956;2023-03-23T06:48:48;94775.03;;;5.02;100.00
22047;BME280;11187;49.412;20.956;2023-03-23T06:51:34;94778.38;;;5.14;100.00
22047;BME280;11187;49.412;20.956;2023-03-23T06:54:06;94774.06;;;5.31;100.00
22047;BME280;11187;49.412;20.956;2023-03-23T06:56:59;94771.47;;;5.48;100.00
22047;BME280;11187;49.412;20.956;2023-03-23T06:59:52;94770.53;;;5.68;100.00
22047;BME280;11187;49.412;20.956;2023-03-23T07:02:45;94765.34;;;5.88;100.00
22047;BME280;11187;49.412;20.956;2023-03-23T07:05:17;94777.13;;;6.07;100.00
22047;BME280;11187;49.412;20.956;2023-03-23T07:08:03;94777.78;;;6.31;100.00
22047;BME280;11187;49.412;20.956;2023-03-23T07:10:35;94769.97;;;6.55;100.00
22047;BME280;11187;49.412;20.956;2023-03-23T07:13:21;94775.69;;;6.80;100.00
22047;BME280;11187;49.412;20.956;2023-03-23T07:15:53;94773.75;;;7.05;100.00
22047;BME280;11187;49.412;20.956;2023-03-23T07:18:39;94768.41;;;7.30;100.00
22047;BME280;11187;49.412;20.956;2023-03-23T07:21:11;94779.19;;;7.52;100.00
22047;BME280;11187;49.412;20.956;2023-03-23T07:24:04;94773.94;;;7.63;100.00
22047;BME280;11187;49.412;20.956;2023-03-23T07:26:59;94775.47;;;7.76;100.00
22047;BME280;11187;49.412;20.956;2023-03-23T07:29:52;94771.78;;;7.99;100.00
22047;BME280;11187;49.412;20.956;2023-03-23T07:32:24;94772.31;;;8.22;100.00
22047;BME280;11187;49.412;20.956;2023-03-23T07:35:10;94773.56;;;8.51;100.00
22047;BME280;11187;49.412;20.956;2023-03-23T07:37:42;94767.19;;;8.76;99.88
22047;BME280;11187;49.412;20.956;2023-03-23T07:40:28;94766.66;;;9.09;99.10
22047;BME280;11187;49.412;20.956;2023-03-23T07:43:02;94767.78;;;9.39;98.44
22047;BME280;11187;49.412;20.956;2023-03-23T07:45:48;94773.22;;;9.66;97.20
22047;BME280;11187;49.412;20.956;2023-03-23T07:48:20;94761.69;;;9.88;96.94
22047;BME280;11187;49.412;20.956;2023-03-23T07:51:06;94762.00;;;10.13;95.93
22047;BME280;11187;49.412;20.956;2023-03-23T07:53:38;94755.31;;;10.45;95.32
22047;BME280;11187;49.412;20.956;2023-03-23T07:56:25;94762.97;;;10.81;93.15
22047;BME280;11187;49.412;20.956;2023-03-23T07:58:57;94757.16;;;11.08;92.43
22047;BME280;11187;49.412;20.956;2023-03-23T08:01:46;94755.63;;;11.34;91.48
22047;BME280;11187;49.412;20.956;2023-03-23T08:04:18;94752.13;;;11.68;90.55
22047;BME280;11187;49.412;20.956;2023-03-23T08:07:06;94746.13;;;11.99;89.59
22047;BME280;11187;49.412;20.956;2023-03-23T08:09:38;94749.56;;;12.26;87.36
22047;BME280;11187;49.412;20.956;2023-03-23T08:12:31;94750.44;;;12.53;86.48
22047;BME280;11187;49.412;20.956;2023-03-23T08:15:24;94746.69;;;12.90;86.05
22047;BME280;11187;49.412;20.956;2023-03-23T08:17:58;94747.38;;;13.20;84.43
22047;BME280;11187;49.412;20.956;2023-03-23T08:20:44;94747.22;;;13.50;83.02
22047;BME280;11187;49.412;20.956;2023-03-23T08:23:38;94741.03;;;13.79;82.81
22047;BME280;11187;49.412;20.956;2023-03-23T08:26:31;94747.09;;;14.00;80.79
22047;BME280;11187;49.412;20.956;2023-03-23T08:29:03;94747.06;;;14.24;80.13
22047;BME280;11187;49.412;20.956;2023-03-23T08:31:49;94744.16;;;14.55;78.62
22047;BME280;11187;49.412;20.956;2023-03-23T08:34:21;94738.94;;;14.78;76.92
22047;BME280;11187;49.412;20.956;2023-03-23T08:37:07;94743.44;;;14.94;75.40
22047;BME280;11187;49.412;20.956;2023-03-23T08:39:40;94742.03;;;15.07;75.25
22047;BME280;11187;49.412;20.956;2023-03-23T08:42:26;94735.06;;;15.09;74.53
22047;BME280;11187;49.412;20.956;2023-03-23T08:44:58;94731.41;;;15.15;74.91
22047;BME280;11187;49.412;20.956;2023-03-23T08:47:51;94734.03;;;15.13;73.44
22047;BME280;11187;49.412;20.956;2023-03-23T08:50:25;94734.53;;;15.21;73.96
22047;BME280;11187;49.412;20.956;2023-03-23T08:53:19;94732.72;;;15.23;74.50
22047;BME280;11187;49.412;20.956;2023-03-23T08:55:52;94729.97;;;15.28;72.84
22047;BME280;11187;49.412;20.956;2023-03-23T08:58:45;94743.00;;;15.25;72.24
22047;BME280;11187;49.412;20.956;2023-03-23T09:01:38;94734.91;;;15.33;72.23
22047;BME280;11187;49.412;20.956;2023-03-23T09:04:10;94738.66;;;15.46;72.49
22047;BME280;11187;49.412;20.956;2023-03-23T09:06:56;94747.16;;;15.48;71.25
22047;BME280;11187;49.412;20.956;2023-03-23T09:09:29;94745.94;;;15.57;71.24
22047;BME280;11187;49.412;20.956;2023-03-23T09:12:23;94741.75;;;15.54;70.92
22047;BME280;11187;49.412;20.956;2023-03-23T09:14:55;94743.91;;;15.44;70.74
22047;BME280;11187;49.412;20.956;2023-03-23T09:17:48;94741.31;;;15.44;71.42
22047;BME280;11187;49.412;20.956;2023-03-23T09:20:23;94737.19;;;15.40;70.67
22047;BME280;11187;49.412;20.956;2023-03-23T09:23:09;94733.09;;;15.35;70.66
22047;BME280;11187;49.412;20.956;2023-03-23T09:25:41;94729.50;;;15.39;72.09
22047;BME280;11187;49.412;20.956;2023-03-23T09:28:34;94735.81;;;15.52;71.79
22047;BME280;11187;49.412;20.956;2023-03-23T09:31:06;94740.13;;;15.72;70.93
22047;BME280;11187;49.412;20.956;2023-03-23T09:33:55;94728.56;;;16.00;71.40
22047;BME280;11187;49.412;20.956;2023-03-23T09:36:28;94715.78;;;16.16;70.12
22047;BME280;11187;49.412;20.956;2023-03-23T09:39:21;94719.19;;;16.16;68.91
22047;BME280;11187;49.412;20.956;2023-03-23T09:45:46;94718.44;;;15.76;69.22
22047;BME280;11187;49.412;20.956;2023-03-23T09:48:46;94715.00;;;15.76;69.34
22047;BME280;11187;49.412;20.956;2023-03-23T09:51:53;94715.97;;;15.73;69.42
22047;BME280;11187;49.412;20.956;2023-03-23T09:54:30;94715.78;;;15.78;69.36
22047;BME280;11187;49.412;20.956;2023-03-23T09:57:28;94714.88;;;15.79;68.60
22047;BME280;11187;49.412;20.956;2023-03-23T10:03:13;94714.03;;;15.97;67.93
22047;BME280;11187;49.412;20.956;2023-03-23T10:05:49;94715.63;;;16.00;68.05
22047;BME280;11187;49.412;20.956;2023-03-23T10:08:35;94714.81;;;15.99;68.82
22047;BME280;11187;49.412;20.956;2023-03-23T10:14:59;94719.81;;;16.02;68.41
22047;BME280;11187;49.412;20.956;2023-03-23T10:17:42;94715.69;;;15.98;66.64
22047;BME280;11187;49.412;20.956;2023-03-23T10:20:55;94713.69;;;15.86;66.53
22047;BME280;11187;49.412;20.956;2023-03-23T10:36:05;94706.34;;;15.96;67.38
22047;BME280;11187;49.412;20.956;2023-03-23T10:38:41;94701.91;;;15.99;66.64
22047;BME280;11187;49.412;20.956;2023-03-23T10:41:36;94701.75;;;16.02;66.22
22047;BME280;11187;49.412;20.956;2023-03-23T10:44:29;94701.69;;;16.04;65.87
22047;BME280;11187;49.412;20.956;2023-03-23T10:47:08;94699.00;;;16.05;66.62
22047;BME280;11187;49.412;20.956;2023-03-23T10:50:05;94700.50;;;16.11;65.55
22047;BME280;11187;49.412;20.956;2023-03-23T10:53:00;94696.97;;;16.12;64.61
22047;BME280;11187;49.412;20.956;2023-03-23T10:55:40;94693.84;;;16.05;65.16
22047;BME280;11187;49.412;20.956;2023-03-23T10:58:34;94697.34;;;16.04;65.48
22047;BME280;11187;49.412;20.956;2023-03-23T11:01:11;94688.19;;;16.16;65.13
22047;BME280;11187;49.412;20.956;2023-03-23T11:03:57;94689.84;;;16.36;65.24
22047;BME280;11187;49.412;20.956;2023-03-23T11:06:33;94684.94;;;16.49;64.28
22047;BME280;11187;49.412;20.956;2023-03-23T11:09:38;94685.97;;;16.45;64.67
22047;BME280;11187;49.412;20.956;2023-03-23T11:12:33;94684.94;;;16.49;62.98
22047;BME280;11187;49.412;20.956;2023-03-23T11:15:33;94680.38;;;16.54;63.62
22047;BME280;11187;49.412;20.956;2023-03-23T11:18:11;94674.19;;;16.57;63.19
22047;BME280;11187;49.412;20.956;2023-03-23T11:20:57;94670.84;;;16.55;63.06
22047;BME280;11187;49.412;20.956;2023-03-23T11:23:53;94668.59;;;16.66;64.47
22047;BME280;11187;49.412;20.956;2023-03-23T11:26:46;94663.13;;;16.89;63.69
22047;BME280;11187;49.412;20.956;2023-03-23T11:29:22;94660.06;;;17.16;63.42
22047;BME280;11187;49.412;20.956;2023-03-23T11:32:12;94666.28;;;17.29;62.22
22047;BME280;11187;49.412;20.956;2023-03-23T11:34:48;94658.81;;;17.23;61.98
22047;BME280;11187;49.412;20.956;2023-03-23T11:37:43;94652.88;;;17.21;61.28
22047;BME280;11187;49.412;20.956;2023-03-23T11:40:46;94657.59;;;17.30;62.41
22047;BME280;11187;49.412;20.956;2023-03-23T11:43:41;94647.19;;;17.48;62.32
22047;BME280;11187;49.412;20.956;2023-03-23T11:46:43;94645.31;;;17.67;60.25
22047;BME280;11187;49.412;20.956;2023-03-23T11:49:28;94648.53;;;17.55;59.79
22047;BME280;11187;49.412;20.956;2023-03-23T11:52:47;94643.41;;;17.22;59.84
22047;BME280;11187;49.412;20.956;2023-03-23T11:58:38;94636.94;;;17.13;61.39
22047;BME280;11187;49.412;20.956;2023-03-23T12:04:35;94640.91;;;17.36;61.67
22047;BME280;11187;49.412;20.956;2023-03-23T12:13:15;94617.50;;;17.87;59.45
22047;BME280;11187;49.412;20.956;2023-03-23T12:16:51;94621.53;;;17.92;58.32
22047;BME280;11187;49.412;20.956;2023-03-23T12:19:30;94614.84;;;17.88;58.35
22047;BME280;11187;49.412;20.956;2023-03-23T12:25:39;94616.56;;;18.20;56.90
22047;BME280;11187;49.412;20.956;2023-03-23T12:28:55;94625.59;;;18.28;56.88
22047;BME280;11187;49.412;20.956;2023-03-23T12:31:46;94616.63;;;18.34;54.00
22047;BME280;11187;49.412;20.956;2023-03-23T12:43:52;94611.75;;;18.44;51.93
22047;BME280;11187;49.412;20.956;2023-03-23T12:50:13;94613.88;;;18.21;53.70
22047;BME280;11187;49.412;20.956;2023-03-23T12:53:18;94612.75;;;18.11;53.04
22047;BME280;11187;49.412;20.956;2023-03-23T12:56:16;94605.41;;;18.03;53.91
22047;BME280;11187;49.412;20.956;2023-03-23T12:59:17;94602.13;;;18.00;55.45
22047;BME280;11187;49.412;20.956;2023-03-23T13:01:59;94598.22;;;17.92;55.08
22047;BME280;11187;49.412;20.956;2023-03-23T13:08:11;94592.78;;;17.65;55.89
22047;BME280;11187;49.412;20.956;2023-03-23T13:11:04;94584.75;;;17.54;55.38
22047;BME280;11187;49.412;20.956;2023-03-23T13:13:48;94587.78;;;17.46;56.07
22047;BME280;11187;49.412;20.956;2023-03-23T13:22:32;94583.66;;;17.42;53.87
22047;BME280;11187;49.412;20.956;2023-03-23T13:28:59;94568.78;;;17.30;54.30
22047;BME280;11187;49.412;20.956;2023-03-23T13:35:11;94571.34;;;17.14;54.78
22047;BME280;11187;49.412;20.956;2023-03-23T13:37:59;94565.84;;;17.04;54.90
22047;BME280;11187;49.412;20.956;2023-03-23T13:40:31;94565.16;;;17.01;55.83
22047;BME280;11187;49.412;20.956;2023-03-23T13:43:32;94559.56;;;16.93;56.82
22047;BME280;11187;49.412;20.956;2023-03-23T13:46:22;94557.13;;;16.89;57.06
22047;BME280;11187;49.412;20.956;2023-03-23T13:54:39;94556.06;;;16.76;57.65
22047;BME280;11187;49.412;20.956;2023-03-23T14:03:13;94551.28;;;16.68;58.62
22047;BME280;11187;49.412;20.956;2023-03-23T14:11:26;94559.03;;;16.68;58.57
22047;BME280;11187;49.412;20.956;2023-03-23T14:16:49;94564.78;;;16.74;58.70
22047;BME280;11187;49.412;20.956;2023-03-23T14:19:28;94564.72;;;16.75;58.88
22047;BME280;11187;49.412;20.956;2023-03-23T14:25:18;94562.13;;;16.75;58.40
22047;BME280;11187;49.412;20.956;2023-03-23T14:27:53;94557.03;;;16.74;58.13
22047;BME280;11187;49.412;20.956;2023-03-23T14:30:38;94555.44;;;16.71;58.27
22047;BME280;11187;49.412;20.956;2023-03-23T14:33:12;94558.03;;;16.71;57.96
22047;BME280;11187;49.412;20.956;2023-03-23T14:36:05;94558.13;;;16.69;58.49
22047;BME280;11187;49.412;20.956;2023-03-23T14:38:37;94554.78;;;16.67;58.46
22047;BME280;11187;49.412;20.956;2023-03-23T14:41:23;94555.03;;;16.63;58.14
22047;BME280;11187;49.412;20.956;2023-03-23T14:43:59;94556.84;;;16.61;58.40
22047;BME280;11187;49.412;20.956;2023-03-23T14:46:54;94557.84;;;16.58;58.53
22047;BME280;11187;49.412;20.956;2023-03-23T14:49:52;94558.06;;;16.54;58.67
22047;BME280;11187;49.412;20.956;2023-03-23T14:52:32;94552.16;;;16.52;58.85
22047;BME280;11187;49.412;20.956;2023-03-23T14:55:20;94551.38;;;16.49;59.92
22047;BME280;11187;49.412;20.956;2023-03-23T14:57:52;94549.69;;;16.48;59.43
22047;BME280;11187;49.412;20.956;2023-03-23T15:00:59;94557.56;;;16.47;59.86
22047;BME280;11187;49.412;20.956;2023-03-23T15:03:41;94554.44;;;16.40;59.15
22047;BME280;11187;49.412;20.956;2023-03-23T15:06:30;94557.09;;;16.39;59.46
22047;BME280;11187;49.412;20.956;2023-03-23T15:09:07;94561.50;;;16.37;59.24
22047;BME280;11187;49.412;20.956;2023-03-23T15:11:59;94557.47;;;16.31;60.05
22047;BME280;11187;49.412;20.956;2023-03-23T15:17:31;94564.09;;;16.19;59.88
22047;BME280;11187;49.412;20.956;2023-03-23T15:20:10;94561.63;;;16.16;60.08
22047;BME280;11187;49.412;20.956;2023-03-23T15:23:07;94559.38;;;16.10;60.20
22047;BME280;11187;49.412;20.956;2023-03-23T15:26:06;94553.69;;;16.03;60.26
22047;BME280;11187;49.412;20.956;2023-03-23T15:29:19;94570.22;;;15.99;60.64
22047;BME280;11187;49.412;20.956;2023-03-23T15:31:54;94567.09;;;15.93;60.50
22047;BME280;11187;49.412;20.956;2023-03-23T15:34:44;94572.31;;;15.91;60.50
22047;BME280;11187;49.412;20.956;2023-03-23T15:37:28;94576.72;;;15.89;60.94
22047;BME280;11187;49.412;20.956;2023-03-23T15:40:22;94576.06;;;15.85;61.46
22047;BME280;11187;49.412;20.956;2023-03-23T15:49:11;94579.31;;;15.70;61.78
22047;BME280;11187;49.412;20.956;2023-03-23T15:51:45;94581.19;;;15.66;61.63
22047;BME280;11187;49.412;20.956;2023-03-23T15:54:38;94579.81;;;15.59;62.47
22047;BME280;11187;49.412;20.956;2023-03-23T15:57:10;94584.34;;;15.54;62.01
22047;BME280;11187;49.412;20.956;2023-03-23T16:00:04;94585.59;;;15.45;62.48
22047;BME280;11187;49.412;20.956;2023-03-23T16:03:00;94580.72;;;15.39;62.66
22047;BME280;11187;49.412;20.956;2023-03-23T16:05:34;94584.50;;;15.32;62.84
22047;BME280;11187;49.412;20.956;2023-03-23T16:08:20;94586.50;;;15.25;63.01
22047;BME280;11187;49.412;20.956;2023-03-23T16:10:54;94597.84;;;15.21;63.63
22047;BME280;11187;49.412;20.956;2023-03-23T16:13:47;94595.56;;;15.15;63.84
22047;BME280;11187;49.412;20.956;2023-03-23T16:16:45;94597.53;;;15.10;63.97
22047;BME280;11187;49.412;20.956;2023-03-23T16:19:19;94602.81;;;15.07;64.04
22047;BME280;11187;49.412;20.956;2023-03-23T16:22:05;94601.25;;;15.03;64.11
22047;BME280;11187;49.412;20.956;2023-03-23T16:24:59;94607.38;;;15.00;64.42
22047;BME280;11187;49.412;20.956;2023-03-23T16:27:34;94604.25;;;14.94;64.42
22047;BME280;11187;49.412;20.956;2023-03-23T16:30:26;94602.84;;;14.87;64.92